Time;durP1;ratioP1;P1;durP2;ratioP2;P2;SDS_P1;SDS_P2;PMS_P1;PMS_P2;Temp;Humidity;BMP_temperature;BMP_pressure;BME280_temperature;BME280_humidity;BME280_pressure;Samples;Min_cycle;Max_cycle;Signal;HPM_P1;HPM_P2
2022/04/11 00:01:12;;;;;;;7.63;3.43;;;9.90;70.90;;;;;;5086773;28;20425;-72
2022/04/11 00:03:38;;;;;;;8.63;3.60;;;9.90;70.40;;;;;;5085947;28;20902;-73
2022/04/11 00:06:03;;;;;;;9.37;3.50;;;9.80;70.60;;;;;;5087555;28;20973;-73
2022/04/11 00:08:29;;;;;;;8.18;3.50;;;9.80;70.40;;;;;;5085504;28;20424;-70
2022/04/11 00:10:55;;;;;;;7.17;3.30;;;9.80;70.30;;;;;;5087076;28;20408;-71
2022/04/11 00:13:21;;;;;;;9.95;3.65;;;9.80;70.60;;;;;;5069171;28;20740;-70
2022/04/11 00:15:47;;;;;;;8.53;3.23;;;9.70;70.30;;;;;;5087871;28;20463;-72
2022/04/11 00:18:12;;;;;;;7.63;3.70;;;9.70;70.30;;;;;;5069989;28;20401;-71
2022/04/11 00:20:38;;;;;;;6.07;3.40;;;9.70;70.50;;;;;;5068521;28;20422;-70
2022/04/11 00:23:04;;;;;;;9.10;3.20;;;9.70;70.60;;;;;;5083900;28;20401;-71
2022/04/11 00:25:31;;;;;;;7.78;3.20;;;9.70;70.60;;;;;;5085709;28;20453;-70
2022/04/11 00:27:56;;;;;;;8.90;3.35;;;9.60;70.20;;;;;;5087343;28;20425;-68
2022/04/11 00:30:22;;;;;;;6.30;2.93;;;9.60;70.50;;;;;;5066427;28;20421;-69
2022/04/11 00:32:48;;;;;;;6.13;3.00;;;9.60;70.40;;;;;;5070607;28;20964;-69
2022/04/11 00:35:14;;;;;;;8.67;3.33;;;9.60;71.50;;;;;;5084818;28;20426;-69
2022/04/11 00:37:40;;;;;;;9.05;3.20;;;9.50;70.70;;;;;;5070182;28;20398;-69
2022/04/11 00:40:08;;;;;;;6.40;2.83;;;9.50;70.70;;;;;;5068725;28;20796;-70
2022/04/11 00:42:34;;;;;;;8.93;2.85;;;9.50;70.80;;;;;;5054402;28;20414;-70
2022/04/11 00:45:00;;;;;;;7.63;3.15;;;9.50;71.10;;;;;;5066860;28;20398;-68
2022/04/11 00:47:27;;;;;;;7.38;3.05;;;9.40;71.30;;;;;;5085645;28;20398;-70
2022/04/11 00:49:56;;;;;;;7.33;2.83;;;9.40;71.40;;;;;;5068367;28;20497;-70
2022/04/11 00:52:21;;;;;;;8.73;2.92;;;9.40;71.60;;;;;;5086943;28;20471;-71
2022/04/11 00:54:48;;;;;;;8.27;3.00;;;9.30;71.90;;;;;;5052413;28;20409;-71
2022/04/11 00:57:15;;;;;;;7.13;2.97;;;9.40;72.00;;;;;;5051253;28;20460;-70
2022/04/11 00:59:41;;;;;;;8.48;2.90;;;9.30;72.10;;;;;;5068964;28;20914;-70
2022/04/11 01:02:07;;;;;;;9.05;2.70;;;9.30;72.50;;;;;;5086847;28;20440;-69
2022/04/11 01:04:34;;;;;;;9.05;2.88;;;9.40;72.50;;;;;;5049915;28;20914;-69
2022/04/11 01:06:59;;;;;;;7.20;2.63;;;9.40;72.40;;;;;;5087715;28;20558;-70
2022/04/11 01:09:26;;;;;;;6.00;2.90;;;9.40;72.60;;;;;;5068559;28;20406;-69
2022/04/11 01:11:52;;;;;;;5.55;2.90;;;9.40;73.00;;;;;;5068650;28;20410;-70
2022/04/11 01:14:19;;;;;;;8.55;3.03;;;9.40;72.80;;;;;;5069585;28;20439;-69
2022/04/11 01:16:52;;;;;;;7.93;2.97;;;9.40;73.20;;;;;;5068649;28;20882;-70
2022/04/11 01:19:20;;;;;;;9.27;3.17;;;9.40;73.30;;;;;;5059310;28;20405;-70
2022/04/11 01:21:46;;;;;;;8.35;3.30;;;9.40;73.20;;;;;;5069978;28;20398;-70
2022/04/11 01:24:12;;;;;;;7.13;3.03;;;9.40;73.60;;;;;;5067781;28;20406;-71
2022/04/11 01:26:40;;;;;;;8.82;2.95;;;9.40;74.80;;;;;;5066002;28;20449;-70
2022/04/11 01:29:08;;;;;;;7.82;2.92;;;9.40;74.70;;;;;;5064720;28;20487;-70
2022/04/11 01:31:34;;;;;;;9.90;3.00;;;9.40;74.30;;;;;;5051996;28;20768;-70
2022/04/11 01:34:00;;;;;;;10.43;3.10;;;9.30;74.00;;;;;;5084165;28;20933;-69
2022/04/11 01:36:26;;;;;;;6.25;2.90;;;9.30;73.70;;;;;;5067692;28;20452;-70
2022/04/11 01:38:52;;;;;;;7.70;3.10;;;9.30;74.30;;;;;;5067144;28;20394;-70
2022/04/11 01:41:19;;;;;;;7.47;2.92;;;9.30;74.30;;;;;;5067998;28;20767;-70
2022/04/11 01:43:46;;;;;;;6.53;2.78;;;9.30;74.20;;;;;;5066236;28;20414;-70
2022/04/11 01:46:12;;;;;;;8.43;3.00;;;9.30;74.30;;;;;;5066278;28;20542;-70
2022/04/11 01:48:43;;;;;;;8.35;2.85;;;9.30;74.40;;;;;;5067691;28;20888;-70
2022/04/11 01:51:11;;;;;;;7.83;3.00;;;9.20;74.50;;;;;;5068744;28;20402;-71
2022/04/11 01:53:36;;;;;;;6.70;2.90;;;9.20;74.80;;;;;;5085183;28;20833;-70
2022/04/11 01:56:02;;;;;;;6.88;2.83;;;9.30;75.00;;;;;;5067747;28;20413;-70
2022/04/11 01:58:29;;;;;;;8.05;2.70;;;9.20;75.00;;;;;;5052142;28;20413;-69
2022/04/11 02:00:58;;;;;;;6.95;2.78;;;9.20;75.10;;;;;;5050240;28;20406;-70
2022/04/11 02:03:25;;;;;;;9.15;3.00;;;9.20;75.30;;;;;;5085002;28;20428;-70
2022/04/11 02:05:51;;;;;;;6.43;2.60;;;9.20;75.80;;;;;;5067497;28;20488;-71
2022/04/11 02:08:17;;;;;;;6.18;2.70;;;9.20;76.20;;;;;;5067809;28;20398;-70
2022/04/11 02:10:43;;;;;;;5.70;2.75;;;9.10;76.50;;;;;;5065065;28;20425;-70
2022/04/11 02:13:10;;;;;;;6.18;2.78;;;9.10;76.50;;;;;;5087827;28;20422;-71
2022/04/11 02:15:37;;;;;;;6.32;2.85;;;9.10;77.20;;;;;;5066876;28;20403;-71
2022/04/11 02:18:03;;;;;;;7.90;3.10;;;9.10;76.90;;;;;;5068929;28;20402;-70
2022/04/11 02:20:28;;;;;;;8.50;3.10;;;9.00;77.20;;;;;;5066411;28;20759;-71
2022/04/11 02:22:56;;;;;;;7.33;3.10;;;9.00;78.30;;;;;;5051424;28;20401;-69
2022/04/11 02:25:24;;;;;;;7.43;3.38;;;9.00;78.90;;;;;;5066892;28;20774;-71
2022/04/11 02:27:51;;;;;;;7.57;3.30;;;9.00;78.90;;;;;;5066994;28;20441;-70
2022/04/11 02:30:18;;;;;;;6.43;3.00;;;8.90;78.90;;;;;;5066826;28;20410;-70
2022/04/11 02:32:45;;;;;;;7.10;3.40;;;9.00;79.20;;;;;;5069351;28;20420;-70
2022/04/11 02:35:11;;;;;;;7.20;3.30;;;8.90;78.90;;;;;;5086609;28;20822;-71
2022/04/11 02:37:38;;;;;;;10.10;3.38;;;8.90;78.60;;;;;;5067592;28;20491;-70
2022/04/11 02:40:05;;;;;;;8.80;3.33;;;8.80;79.20;;;;;;5086155;28;20401;-69
2022/04/11 02:42:35;;;;;;;7.40;3.20;;;8.80;79.40;;;;;;5069117;28;20405;-70
2022/04/11 02:45:08;;;;;;;5.53;3.50;;;8.80;79.70;;;;;;5053445;28;20421;-70
2022/04/11 02:47:34;;;;;;;7.93;3.38;;;8.80;79.70;;;;;;5071543;28;20425;-70
2022/04/11 02:50:00;;;;;;;10.43;3.80;;;8.80;79.60;;;;;;5054355;28;20455;-70
2022/04/11 02:52:41;;;;;;;9.85;3.30;;;8.80;79.80;;;;;;5070514;28;20424;-69
2022/04/11 02:55:07;;;;;;;7.13;3.43;;;8.80;80.20;;;;;;5086921;28;20838;-70
2022/04/11 02:57:36;;;;;;;9.10;3.67;;;8.80;79.80;;;;;;5070212;28;20830;-69
2022/04/11 03:00:08;;;;;;;10.02;3.80;;;8.80;79.60;;;;;;5070686;28;20412;-71
2022/04/11 03:02:36;;;;;;;9.25;4.00;;;8.80;79.50;;;;;;5070075;28;20405;-69
2022/04/11 03:05:02;;;;;;;8.43;3.53;;;8.80;79.50;;;;;;5086782;28;20420;-70
2022/04/11 03:07:28;;;;;;;8.05;3.67;;;8.80;79.60;;;;;;5071819;28;20398;-69
2022/04/11 03:09:55;;;;;;;8.07;3.75;;;8.80;79.80;;;;;;5070408;28;20409;-70
2022/04/11 03:12:22;;;;;;;9.77;3.78;;;8.80;79.30;;;;;;5053989;28;20424;-70
2022/04/11 03:14:51;;;;;;;7.75;3.70;;;8.90;79.00;;;;;;5071862;28;20822;-70
2022/04/11 03:17:18;;;;;;;8.48;3.72;;;8.80;79.30;;;;;;5072646;28;20394;-69
2022/04/11 03:19:45;;;;;;;8.33;3.90;;;8.80;79.20;;;;;;5083479;28;20416;-71
2022/04/11 03:22:11;;;;;;;9.88;3.90;;;8.80;79.10;;;;;;5071113;28;20820;-69
2022/04/11 03:24:39;;;;;;;10.82;4.03;;;8.90;79.40;;;;;;5068190;28;20413;-69
2022/04/11 03:27:06;;;;;;;9.05;3.97;;;8.90;79.20;;;;;;5033882;28;20414;-70
2022/04/11 03:29:35;;;;;;;6.78;3.63;;;8.90;79.30;;;;;;5044592;28;20406;-71
2022/04/11 03:32:00;;;;;;;10.70;4.10;;;8.80;79.30;;;;;;5047133;28;20416;-68
2022/04/11 03:34:29;;;;;;;11.45;4.70;;;8.90;79.30;;;;;;5046283;28;20932;-70
2022/04/11 03:36:55;;;;;;;10.43;4.45;;;8.90;79.30;;;;;;5047919;28;20406;-69
2022/04/11 03:39:23;;;;;;;10.35;4.40;;;8.90;79.20;;;;;;5044793;28;20910;-68
2022/04/11 03:41:49;;;;;;;10.80;4.45;;;8.90;79.10;;;;;;5046029;28;20422;-70
2022/04/11 03:44:23;;;;;;;11.50;4.80;;;8.90;79.60;;;;;;5045220;28;20433;-70
2022/04/11 03:46:54;;;;;;;13.17;4.90;;;8.90;79.90;;;;;;5047368;28;20420;-70
2022/04/11 03:49:24;;;;;;;10.50;5.38;;;8.90;80.00;;;;;;5046405;28;20416;-70
2022/04/11 03:51:51;;;;;;;11.88;5.10;;;8.90;80.10;;;;;;5045835;28;20401;-70
2022/04/11 03:54:17;;;;;;;10.45;5.05;;;8.90;79.30;;;;;;5045770;28;20512;-70
2022/04/11 03:56:42;;;;;;;10.88;5.20;;;9.00;78.90;;;;;;5029931;28;20492;-70
2022/04/11 03:59:09;;;;;;;10.32;5.50;;;9.00;78.30;;;;;;5046190;28;20432;-71
2022/04/11 04:01:36;;;;;;;11.60;5.30;;;9.00;77.80;;;;;;5047031;28;20500;-70
2022/04/11 04:04:03;;;;;;;10.23;5.57;;;9.00;77.80;;;;;;5046437;28;20409;-69
2022/04/11 04:06:30;;;;;;;12.73;5.55;;;9.00;77.60;;;;;;5046936;28;20413;-69
2022/04/11 04:08:56;;;;;;;10.70;5.63;;;9.00;77.50;;;;;;5044689;28;20412;-71
2022/04/11 04:11:29;;;;;;;10.35;5.70;;;9.10;77.60;;;;;;5044380;28;20413;-71
2022/04/11 04:14:06;;;;;;;11.55;5.82;;;9.00;77.50;;;;;;5043460;28;20504;-71
2022/04/11 04:16:37;;;;;;;14.63;6.50;;;9.00;77.40;;;;;;5046536;28;20902;-71
2022/04/11 04:19:05;;;;;;;10.50;5.80;;;9.00;77.20;;;;;;5028365;28;20993;-70
2022/04/11 04:21:32;;;;;;;11.13;5.50;;;9.00;77.40;;;;;;5044201;28;20420;-70
2022/04/11 04:23:58;;;;;;;10.63;5.70;;;9.00;77.60;;;;;;5045091;28;20407;-70
2022/04/11 04:26:26;;;;;;;11.50;5.68;;;9.00;77.50;;;;;;5050602;28;20433;-69
2022/04/11 04:28:53;;;;;;;11.57;5.82;;;9.00;77.50;;;;;;5042195;28;20483;-70
2022/04/11 04:31:21;;;;;;;10.63;5.90;;;9.00;77.80;;;;;;5045392;28;20401;-70
2022/04/11 04:33:47;;;;;;;14.50;5.90;;;9.10;77.90;;;;;;5042782;28;20937;-69
2022/04/11 04:36:14;;;;;;;10.53;5.70;;;9.00;77.80;;;;;;5060180;28;20445;-70
2022/04/11 04:38:40;;;;;;;11.40;6.32;;;9.00;78.00;;;;;;5044290;28;20408;-71
2022/04/11 04:41:07;;;;;;;13.45;6.43;;;9.00;78.10;;;;;;5044519;28;20409;-70
2022/04/11 04:43:33;;;;;;;11.18;6.40;;;9.00;78.30;;;;;;5030789;28;20405;-70
2022/04/11 04:46:00;;;;;;;12.45;6.38;;;9.10;78.40;;;;;;5044525;28;20483;-71
2022/04/11 04:49:03;;;;;;;11.50;6.55;;;9.10;78.50;;;;;;5025600;28;20414;-70
2022/04/11 04:51:29;;;;;;;13.98;6.60;;;9.10;78.50;;;;;;5049761;28;20433;-71
2022/04/11 04:54:01;;;;;;;11.90;6.80;;;9.10;78.50;;;;;;5042875;28;20425;-70
2022/04/11 04:56:31;;;;;;;13.18;6.55;;;9.10;78.60;;;;;;5029670;28;20455;-69
2022/04/11 04:59:01;;;;;;;14.90;7.10;;;9.10;78.90;;;;;;5037391;28;20486;-71
2022/04/11 05:01:27;;;;;;;11.23;6.82;;;9.10;78.90;;;;;;5038108;28;20801;-70
2022/04/11 05:03:55;;;;;;;12.82;7.10;;;9.10;79.10;;;;;;5040604;28;20421;-71
2022/04/11 05:06:26;;;;;;;15.00;7.03;;;9.10;79.10;;;;;;5040136;28;20421;-71
2022/04/11 05:08:52;;;;;;;16.75;7.32;;;9.10;79.20;;;;;;5019796;28;20800;-72
2022/04/11 05:11:20;;;;;;;12.55;7.20;;;9.10;79.30;;;;;;5040276;28;20538;-72
2022/04/11 05:13:46;;;;;;;13.90;7.80;;;9.10;79.50;;;;;;5043415;28;20494;-70
2022/04/11 05:16:12;;;;;;;13.55;7.70;;;9.10;79.70;;;;;;5046396;28;20486;-70
2022/04/11 05:18:38;;;;;;;14.63;7.78;;;9.10;80.10;;;;;;5040090;28;20413;-72
2022/04/11 05:21:04;;;;;;;15.37;8.23;;;9.10;80.50;;;;;;5056920;28;20400;-74
2022/04/11 05:23:33;;;;;;;13.90;7.63;;;9.10;80.70;;;;;;5055202;28;20483;-71
2022/04/11 05:25:58;;;;;;;16.23;8.10;;;9.10;80.90;;;;;;5051202;28;20423;-71
2022/04/11 05:28:25;;;;;;;13.93;8.52;;;9.10;80.70;;;;;;5055312;28;20405;-71
2022/04/11 05:31:01;;;;;;;15.38;8.57;;;9.10;80.80;;;;;;5050910;28;20403;-71
2022/04/11 05:33:29;;;;;;;14.10;8.38;;;9.00;80.80;;;;;;5037672;28;20482;-74
2022/04/11 05:35:56;;;;;;;16.73;8.18;;;9.00;81.10;;;;;;5046699;28;20770;-73
2022/04/11 05:38:22;;;;;;;16.38;8.65;;;9.10;81.30;;;;;;5053763;28;20898;-70
2022/04/11 05:40:51;;;;;;;14.27;8.45;;;9.10;81.00;;;;;;5033105;28;20700;-70
2022/04/11 05:43:24;;;;;;;15.80;8.63;;;9.10;80.90;;;;;;5055201;28;20405;-71
2022/04/11 05:45:50;;;;;;;12.38;8.75;;;9.20;81.20;;;;;;5052096;28;20416;-72
2022/04/11 05:48:16;;;;;;;15.52;8.95;;;9.20;81.50;;;;;;5030690;28;20405;-73
2022/04/11 05:50:43;;;;;;;14.88;8.65;;;9.20;81.20;;;;;;5050595;28;21019;-72
2022/04/11 05:53:09;;;;;;;19.33;9.75;;;9.20;81.00;;;;;;5049280;28;20433;-72
2022/04/11 05:55:35;;;;;;;14.07;8.87;;;9.30;80.90;;;;;;5046403;28;20424;-69
2022/04/11 05:58:02;;;;;;;16.20;9.90;;;9.30;81.20;;;;;;5054736;28;20501;-72
2022/04/11 06:00:28;;;;;;;22.90;11.15;;;9.30;81.40;;;;;;5042705;28;20749;-70
2022/04/11 06:02:53;;;;;;;18.50;10.02;;;9.30;81.30;;;;;;5058173;28;20408;-69
2022/04/11 06:05:22;;;;;;;15.88;10.02;;;9.30;81.30;;;;;;5028575;28;20425;-68
2022/04/11 06:07:48;;;;;;;17.80;9.73;;;9.30;81.30;;;;;;5055115;28;20559;-72
2022/04/11 06:10:14;;;;;;;18.92;10.70;;;9.40;81.80;;;;;;5048442;28;20458;-70
2022/04/11 06:12:41;;;;;;;19.77;10.70;;;9.40;82.10;;;;;;5028234;28;20418;-70
2022/04/11 06:15:07;;;;;;;16.37;10.60;;;9.40;82.30;;;;;;5039357;28;20418;-69
2022/04/11 06:17:33;;;;;;;18.52;10.18;;;9.40;82.30;;;;;;5056714;28;20405;-71
2022/04/11 06:20:00;;;;;;;19.70;10.57;;;9.40;82.30;;;;;;5052057;28;20415;-71
2022/04/11 06:22:27;;;;;;;18.08;11.15;;;9.50;83.00;;;;;;5053091;28;20557;-71
2022/04/11 06:25:00;;;;;;;20.73;11.30;;;9.50;83.20;;;;;;5028828;28;20884;-70
2022/04/11 06:27:27;;;;;;;21.00;11.80;;;9.60;83.10;;;;;;5043570;28;20421;-70
2022/04/11 06:29:56;;;;;;;20.33;11.55;;;9.70;82.60;;;;;;5026883;28;20421;-73
2022/04/11 06:32:30;;;;;;;18.55;11.50;;;9.80;83.00;;;;;;5043838;28;20553;-72
2022/04/11 06:34:57;;;;;;;19.80;11.88;;;9.90;82.60;;;;;;5043299;28;20444;-71
2022/04/11 06:37:25;;;;;;;19.77;11.55;;;9.90;81.70;;;;;;5045532;28;20823;-72
2022/04/11 06:39:52;;;;;;;19.08;11.95;;;10.10;81.30;;;;;;5025787;28;20426;-71
2022/04/11 06:42:18;;;;;;;18.48;12.23;;;10.20;81.30;;;;;;5044121;28;20467;-72
2022/04/11 06:44:47;;;;;;;19.92;12.30;;;10.30;80.60;;;;;;5028139;28;20412;-72
2022/04/11 06:47:14;;;;;;;19.58;12.15;;;10.30;80.50;;;;;;5043194;28;20412;-73
2022/04/11 06:49:40;;;;;;;17.05;12.00;;;10.40;80.40;;;;;;5043696;28;20796;-72
2022/04/11 06:52:06;;;;;;;30.50;21.33;;;10.40;80.20;;;;;;5045926;28;20953;-71
2022/04/11 06:54:32;;;;;;;23.85;13.10;;;10.50;81.10;;;;;;5029092;28;20417;-72
2022/04/11 06:56:58;;;;;;;21.43;13.53;;;10.60;80.20;;;;;;5055043;28;20511;-72
2022/04/11 06:59:24;;;;;;;20.85;13.23;;;10.70;78.80;;;;;;5043719;28;20428;-72
2022/04/11 07:01:52;;;;;;;20.38;12.80;;;10.70;78.70;;;;;;5045777;28;20754;-72
2022/04/11 07:04:18;;;;;;;20.98;13.48;;;10.70;78.90;;;;;;5038467;28;20446;-73
2022/04/11 07:06:44;;;;;;;21.37;13.67;;;10.70;78.50;;;;;;5042968;28;20412;-74
2022/04/11 07:09:10;;;;;;;21.65;13.85;;;10.80;78.20;;;;;;5041892;28;20912;-74
2022/04/11 07:11:36;;;;;;;22.88;13.60;;;10.80;78.40;;;;;;5041474;28;20452;-74
2022/04/11 07:14:03;;;;;;;20.48;13.35;;;10.90;78.90;;;;;;5041150;28;20926;-74
2022/04/11 07:16:29;;;;;;;21.20;13.68;;;10.90;78.60;;;;;;5043714;28;20409;-73
2022/04/11 07:18:55;;;;;;;20.03;13.40;;;11.00;79.00;;;;;;5041269;28;20434;-73
2022/04/11 07:21:21;;;;;;;20.10;13.02;;;11.00;78.70;;;;;;5042594;28;20409;-73
2022/04/11 07:23:47;;;;;;;21.55;13.35;;;11.10;77.80;;;;;;5042934;28;20401;-73
2022/04/11 07:26:13;;;;;;;19.70;13.55;;;11.10;77.40;;;;;;5068187;28;20410;-73
2022/04/11 07:28:39;;;;;;;20.98;13.43;;;11.10;77.30;;;;;;5059298;28;20420;-73
2022/04/11 07:31:05;;;;;;;20.48;12.82;;;11.10;77.30;;;;;;5070177;28;20501;-72
2022/04/11 07:33:31;;;;;;;22.67;13.90;;;11.20;77.00;;;;;;5071814;28;20493;-74
2022/04/11 07:35:57;;;;;;;21.92;13.80;;;11.20;77.50;;;;;;5088172;28;20869;-72
2022/04/11 07:38:23;;;;;;;21.03;13.83;;;11.20;76.30;;;;;;5089741;28;20412;-74
2022/04/11 07:40:49;;;;;;;21.27;13.18;;;11.30;76.50;;;;;;5086176;28;20915;-75
2022/04/11 07:43:15;;;;;;;20.55;13.27;;;11.40;77.20;;;;;;5071109;28;20492;-73
2022/04/11 07:45:42;;;;;;;20.45;12.80;;;11.40;77.10;;;;;;5085511;28;20983;-72
2022/04/11 07:48:08;;;;;;;20.33;13.23;;;11.50;75.20;;;;;;5071024;28;20778;-74
2022/04/11 07:50:33;;;;;;;21.88;12.95;;;11.60;74.70;;;;;;5082227;28;20417;-74
2022/04/11 07:52:59;;;;;;;19.40;13.57;;;11.70;74.40;;;;;;5088692;28;20410;-73
2022/04/11 07:55:25;;;;;;;16.67;12.52;;;11.80;74.90;;;;;;5069237;28;20428;-74
2022/04/11 07:57:51;;;;;;;18.42;12.57;;;11.90;75.60;;;;;;5068711;28;20476;-74
2022/04/11 08:00:17;;;;;;;18.77;12.55;;;12.00;74.00;;;;;;5085199;28;20404;-73
2022/04/11 08:02:43;;;;;;;17.17;12.43;;;12.10;75.00;;;;;;5067236;28;20409;-76
2022/04/11 08:05:09;;;;;;;17.70;12.10;;;12.20;75.70;;;;;;5064770;28;20423;-73
2022/04/11 08:07:36;;;;;;;20.23;12.73;;;12.30;74.30;;;;;;5079444;28;20409;-73
2022/04/11 08:10:04;;;;;;;16.20;12.18;;;12.40;72.90;;;;;;5086842;28;20414;-73
2022/04/11 08:12:30;;;;;;;17.90;12.52;;;12.50;73.90;;;;;;5082357;28;20454;-74
2022/04/11 08:14:56;;;;;;;16.45;11.05;;;12.60;72.70;;;;;;5082797;28;20491;-74
2022/04/11 08:17:21;;;;;;;19.00;11.20;;;12.80;71.40;;;;;;5087003;28;20415;-77
2022/04/11 08:19:47;;;;;;;15.50;10.53;;;12.90;71.40;;;;;;5081427;28;20509;-74
2022/04/11 08:22:13;;;;;;;12.48;9.40;;;13.00;70.60;;;;;;5067815;28;20408;-73
2022/04/11 08:24:38;;;;;;;13.80;9.00;;;13.10;68.00;;;;;;5067236;28;20413;-76
2022/04/11 08:27:04;;;;;;;12.97;9.87;;;13.20;66.80;;;;;;5088081;28;20445;-74
2022/04/11 08:29:30;;;;;;;16.95;9.82;;;13.30;68.20;;;;;;5069997;28;20936;-73
2022/04/11 08:31:55;;;;;;;14.87;9.80;;;13.50;68.20;;;;;;5068416;28;20750;-75
2022/04/11 08:34:21;;;;;;;14.43;9.20;;;13.80;67.80;;;;;;5085689;28;20424;-76
2022/04/11 08:36:48;;;;;;;14.55;9.73;;;14.20;66.40;;;;;;5068908;28;20409;-75
2022/04/11 08:39:14;;;;;;;16.67;10.82;;;14.90;64.40;;;;;;5083173;28;20424;-74
2022/04/11 08:41:40;;;;;;;13.93;9.17;;;15.80;60.20;;;;;;5088535;28;20484;-74
2022/04/11 08:44:06;;;;;;;13.77;8.85;;;16.80;56.20;;;;;;5086150;28;20423;-74
2022/04/11 08:46:34;;;;;;;13.10;8.90;;;18.00;53.20;;;;;;5071377;28;20416;-73
2022/04/11 08:49:04;;;;;;;13.97;9.57;;;19.30;49.80;;;;;;5084063;28;20884;-74
2022/04/11 08:51:31;;;;;;;16.15;9.77;;;20.70;46.10;;;;;;5051541;28;20878;-74
2022/04/11 08:54:01;;;;;;;;;;;22.00;43.50;;;;;;5067073;28;20500;-74
2022/04/11 08:56:27;;;;;;;;;;;23.00;41.70;;;;;;5086197;28;20058;-74
2022/04/11 08:58:53;;;;;;;;;;;24.20;39.10;;;;;;5088285;28;19908;-74
2022/04/11 09:01:18;;;;;;;;;;;25.10;35.60;;;;;;5090433;28;19919;-74
2022/04/11 09:03:44;;;;;;;;;;;25.70;33.90;;;;;;5086134;28;19998;-74
2022/04/11 09:06:10;;;;;;;;;;;24.30;37.90;;;;;;5090245;28;19964;-74
2022/04/11 09:08:37;;;;;;;;;;;23.90;40.90;;;;;;5087815;28;19914;-74
2022/04/11 09:11:02;;;;;;;;;;;23.90;40.90;;;;;;5087591;28;20369;-74
2022/04/11 09:13:28;;;;;;;;;;;23.60;41.20;;;;;;5070733;28;19919;-73
2022/04/11 09:15:54;;;;;;;;;;;23.80;42.00;;;;;;5069371;28;20323;-74
2022/04/11 09:18:19;;;;;;;;;;;26.60;31.40;;;;;;5088404;28;20649;-74
2022/04/11 09:20:45;;;;;;;;;;;28.10;28.80;;;;;;5070015;28;19952;-74
2022/04/11 09:23:18;;;;;;;;;;;26.80;31.60;;;;;;5070035;28;20369;-74
2022/04/11 09:25:44;;;;;;;;;;;26.10;33.40;;;;;;5071135;28;19959;-74
2022/04/11 09:28:11;;;;;;;;;;;25.70;34.40;;;;;;5085272;28;19981;-73
2022/04/11 09:30:37;;;;;;;;;;;25.60;34.40;;;;;;5069513;28;19908;-75
2022/04/11 09:33:07;;;;;;;;;;;25.60;34.50;;;;;;5069736;28;20365;-74
2022/04/11 09:35:34;;;;;;;;;;;25.60;34.60;;;;;;5069240;28;19912;-77
2022/04/11 09:38:08;;;;;;;;;;;25.80;35.00;;;;;;5068966;28;19914;-74
2022/04/11 09:40:50;;;;;;;;;;;26.00;34.70;;;;;;5088038;28;19912;-74
2022/04/11 09:43:18;;;;;;;;;;;26.30;34.30;;;;;;5068283;28;19962;-74
2022/04/11 09:45:43;;;;;;;;;;;26.50;34.00;;;;;;5089509;28;19908;-74
2022/04/11 09:48:09;;;;;;;;;;;26.30;34.70;;;;;;5069799;28;19915;-74
2022/04/11 09:50:35;;;;;;;;;;;26.20;35.40;;;;;;5070802;28;19912;-74
2022/04/11 09:53:10;;;;;;;;;;;26.30;36.90;;;;;;5068866;28;19908;-75
2022/04/11 09:55:36;;;;;;;;;;;26.30;36.70;;;;;;5089258;28;19916;-74
2022/04/11 09:58:03;;;;;;;;;;;26.40;35.80;;;;;;5082646;28;19927;-75
2022/04/11 10:00:29;;;;;;;;;;;26.40;37.30;;;;;;5084266;28;19912;-74
2022/04/11 10:02:57;;;;;;;;;;;26.50;37.90;;;;;;5087003;28;19912;-74
2022/04/11 10:05:26;;;;;;;;;;;26.60;38.90;;;;;;5067568;28;19919;-74
2022/04/11 10:07:54;;;;;;;;;;;26.70;38.50;;;;;;5067669;28;19971;-74
2022/04/11 10:10:21;;;;;;;;;;;26.80;38.40;;;;;;5088625;28;19915;-76
2022/04/11 10:12:47;;;;;;;;;;;27.00;40.00;;;;;;5086398;28;20010;-74
2022/04/11 10:15:13;;;;;;;;;;;27.20;41.40;;;;;;5087060;28;20339;-74
2022/04/11 10:17:38;;;;;;;;;;;27.30;38.40;;;;;;5086019;28;19916;-75
2022/04/11 10:20:05;;;;;;;;;;;27.50;40.20;;;;;;5088340;28;19908;-75
2022/04/11 10:22:33;;;;;;;;;;;27.70;40.00;;;;;;5066419;28;19951;-76
2022/04/11 10:25:04;;;;;;;;;;;27.70;39.30;;;;;;5054537;28;19922;-75
2022/04/11 10:27:30;;;;;;;;;;;27.70;36.80;;;;;;5068018;28;20342;-75
2022/04/11 10:29:56;;;;;;;;;;;27.70;40.20;;;;;;5069763;28;19947;-74
2022/04/11 10:32:23;;;;;;;;;;;27.60;39.80;;;;;;5066173;28;19956;-76
2022/04/11 10:35:02;;;;;;;;;;;27.50;40.30;;;;;;5049939;28;19912;-75
2022/04/11 10:37:48;;;;;;;;;;;27.60;39.70;;;;;;5067427;28;19908;-74
2022/04/11 10:40:16;;;;;;;;;;;27.70;40.50;;;;;;5088873;28;19970;-75
2022/04/11 10:43:05;;;;;;;;;;;27.80;38.10;;;;;;5086733;28;19938;-75
2022/04/11 10:45:31;;;;;;;;;;;27.70;36.90;;;;;;5083561;28;19916;-75
2022/04/11 10:47:57;;;;;;;;;;;27.70;39.60;;;;;;5087025;28;20076;-73
2022/04/11 10:50:41;;;;;;;;;;;27.60;40.10;;;;;;5068457;28;19990;-73
2022/04/11 10:53:11;;;;;;;;;;;27.70;34.40;;;;;;5087239;28;19915;-75
2022/04/11 10:55:55;;;;;;;;;;;27.80;39.10;;;;;;5070410;28;19912;-72
2022/04/11 10:58:22;;;;;;;;;;;27.90;38.90;;;;;;5085303;28;20289;-74
2022/04/11 11:00:48;;;;;;;;;;;28.00;39.50;;;;;;5087321;28;19916;-73
2022/04/11 11:03:14;;;;;;;;;;;28.10;40.50;;;;;;5071899;28;19915;-75
2022/04/11 11:05:48;;;;;;;;;;;28.00;38.80;;;;;;5069697;28;19912;-73
2022/04/11 11:08:17;;;;;;;;;;;27.80;38.90;;;;;;5071628;28;19923;-72
2022/04/11 11:10:48;;;;;;;;;;;27.80;39.70;;;;;;5090311;28;19924;-76
2022/04/11 11:13:27;;;;;;;;;;;27.80;39.20;;;;;;5064716;28;19915;-73
2022/04/11 11:15:57;;;;;;;;;;;27.80;38.30;;;;;;5081586;28;20266;-72
2022/04/11 11:18:23;;;;;;;;;;;27.80;39.20;;;;;;5070486;28;19912;-71
2022/04/11 11:20:58;;;;;;;;;;;27.80;37.40;;;;;;5086594;28;19923;-72
2022/04/11 11:23:30;;;;;;;;;;;27.70;38.70;;;;;;5068257;28;19912;-72
2022/04/11 11:26:05;;;;;;;;;;;27.60;38.70;;;;;;5089726;28;20289;-71
2022/04/11 11:28:31;;;;;;;;;;;27.60;39.30;;;;;;5089675;28;19948;-73
2022/04/11 11:30:57;;;;;;;;;;;27.50;38.30;;;;;;5090137;28;20031;-71
2022/04/11 11:33:24;;;;;;;;;;;27.50;38.10;;;;;;5072005;28;19927;-71
2022/04/11 11:35:51;;;;;;;;;;;27.50;37.40;;;;;;5087346;28;19948;-69
2022/04/11 11:38:20;;;;;;;;;;;27.60;38.10;;;;;;5050044;28;19911;-69
2022/04/11 11:40:59;;;;;;;;;;;27.60;37.60;;;;;;5068915;28;19912;-74
2022/04/11 11:43:25;;;;;;;;;;;27.80;38.90;;;;;;5090228;28;19935;-72
2022/04/11 11:45:51;;;;;;;;;;;27.80;36.20;;;;;;5073112;28;19920;-74
2022/04/11 11:48:30;;;;;;;;;;;27.70;37.00;;;;;;5089915;28;19912;-73
2022/04/11 11:50:57;;;;;;;;;;;27.60;34.40;;;;;;5089243;28;19973;-72
2022/04/11 11:53:26;;;;;;;;;;;27.50;37.30;;;;;;5070445;28;19918;-73
2022/04/11 11:55:56;;;;;;;;;;;27.50;37.90;;;;;;5091239;28;19920;-73
2022/04/11 11:58:32;;;;;;;;;;;27.60;37.20;;;;;;5071245;28;20247;-73
2022/04/11 12:00:58;;;;;;;;;;;27.70;36.00;;;;;;5092129;28;19994;-73
2022/04/11 12:06:24;;;;;;;;;;;27.50;35.20;;;;;;5061060;28;20287;-72
2022/04/11 12:08:54;;;;;;;;;;;27.50;36.50;;;;;;5070248;28;19915;-74
2022/04/11 12:11:21;;;;;;;;;;;27.40;36.40;;;;;;5090433;28;19915;-73
2022/04/11 12:13:46;;;;;;;;;;;27.40;35.00;;;;;;5090338;28;19908;-74
2022/04/11 12:16:17;;;;;;;;;;;27.30;36.70;;;;;;5091426;28;19912;-73
2022/04/11 12:19:02;;;;;;;;;;;27.40;36.40;;;;;;5088965;28;20338;-72
2022/04/11 12:21:32;;;;;;;;;;;27.30;33.20;;;;;;5089825;28;19908;-73
2022/04/11 12:23:58;;;;;;;;;;;27.20;35.20;;;;;;5086055;28;20410;-72
2022/04/11 12:26:34;;;;;;;;;;;27.10;35.90;;;;;;5060080;28;19999;-73
2022/04/11 12:29:08;;;;;;;;;;;27.00;34.00;;;;;;5060350;28;19909;-73
2022/04/11 12:31:33;;;;;;;;;;;26.80;34.40;;;;;;5056892;28;19918;-73
2022/04/11 12:34:08;;;;;;;;;;;26.70;36.00;;;;;;5057069;28;19917;-73
2022/04/11 12:36:34;;;;;;;;;;;26.50;35.60;;;;;;5051461;28;19913;-74
2022/04/11 12:39:00;;;;;;;;;;;26.50;36.60;;;;;;5058777;28;19909;-73
2022/04/11 12:41:27;;;;;;;;;;;26.60;35.40;;;;;;5060963;28;19912;-72
2022/04/11 12:44:02;;;;;;;;;;;26.60;36.10;;;;;;5051029;28;19908;-72
2022/04/11 12:46:28;;;;;;;;;;;26.60;36.10;;;;;;5053066;28;19913;-72
2022/04/11 12:48:55;;;;;;;;;;;26.60;35.70;;;;;;5054125;28;19995;-73
2022/04/11 12:51:20;;;;;;;;;;;26.80;36.70;;;;;;5059565;28;19909;-72
2022/04/11 12:53:46;;;;;;;;;;;26.80;35.00;;;;;;5053192;28;19967;-73
2022/04/11 12:56:12;;;;;;;;;;;26.80;33.80;;;;;;5052571;28;20000;-72
2022/04/11 12:58:37;;;;;;;;;;;26.80;34.20;;;;;;5052017;28;19995;-68
2022/04/11 13:01:03;;;;;;;;;;;26.80;36.50;;;;;;5049663;28;20345;-68
2022/04/11 13:03:30;;;;;;;;;;;27.00;37.60;;;;;;5048361;28;19920;-70
2022/04/11 13:05:57;;;;;;;;;;;27.20;37.20;;;;;;5053196;28;19999;-69
2022/04/11 13:08:26;;;;;;;;;;;27.50;37.50;;;;;;5049124;28;19913;-72
2022/04/11 13:10:51;;;;;;;;;;;27.70;35.50;;;;;;5051293;28;19912;-72
2022/04/11 13:13:17;;;;;;;;;;;27.60;35.80;;;;;;5052422;28;20255;-70
2022/04/11 13:18:26;;;;;;;;;;;27.30;36.00;;;;;;5044080;28;19919;-71
2022/04/11 13:20:53;;;;;;;;;;;27.00;35.90;;;;;;5049474;28;19908;-70